Time;durP1;ratioP1;P1;durP2;ratioP2;P2;SDS_P1;SDS_P2;PMS_P1;PMS_P2;Temp;Humidity;BMP_temperature;BMP_pressure;BME280_temperature;BME280_humidity;BME280_pressure;Samples;Min_cycle;Max_cycle;Signal;HPM_P1;HPM_P2
2023/10/16 00:02:03;;;;;;;5.93;2.55;;;;;;;;;;10294489;28;20072;-63
2023/10/16 00:07:03;;;;;;;6.60;2.13;;;;;;;;;;10294028;28;20076;-63
2023/10/16 00:12:02;;;;;;;2.00;1.45;;;;;;;;;;10296028;28;20210;-63
2023/10/16 00:17:03;;;;;;;3.90;1.80;;;;;;;;;;10293824;28;20462;-63
2023/10/16 00:22:02;;;;;;;4.95;1.65;;;;;;;;;;10292669;28;20523;-63
2023/10/16 00:27:01;;;;;;;7.10;2.38;;;;;;;;;;10294502;28;20080;-63
2023/10/16 00:32:02;;;;;;;5.63;2.25;;;;;;;;;;10292488;28;20092;-63
2023/10/16 00:37:02;;;;;;;9.10;2.28;;;;;;;;;;10293881;28;20537;-63
2023/10/16 00:42:01;;;;;;;8.00;2.20;;;;;;;;;;10295417;28;20067;-64
2023/10/16 00:47:00;;;;;;;8.13;2.33;;;;;;;;;;10292024;28;20092;-64
2023/10/16 00:52:00;;;;;;;6.90;2.10;;;;;;;;;;10293893;28;20064;-62
2023/10/16 00:56:59;;;;;;;4.65;1.88;;;;;;;;;;10289771;28;20493;-63
2023/10/16 01:02:07;;;;;;;5.47;2.47;;;;;;;;;;10288991;28;20064;-63
2023/10/16 01:07:07;;;;;;;6.28;2.08;;;;;;;;;;10291797;28;20087;-63
2023/10/16 01:12:07;;;;;;;3.95;2.30;;;;;;;;;;10294543;28;20068;-64
2023/10/16 01:17:08;;;;;;;5.70;2.00;;;;;;;;;;10292675;28;20502;-64
2023/10/16 01:22:11;;;;;;;4.90;2.20;;;;;;;;;;10290553;28;20079;-62
2023/10/16 01:27:25;;;;;;;5.65;2.20;;;;;;;;;;10288531;28;20080;-63
2023/10/16 01:32:25;;;;;;;6.65;3.55;;;;;;;;;;10291070;28;20072;-62
2023/10/16 01:37:25;;;;;;;7.90;3.38;;;;;;;;;;10304546;28;20514;-63
2023/10/16 01:42:29;;;;;;;4.88;2.92;;;;;;;;;;10287399;28;20037;-62
2023/10/16 01:47:28;;;;;;;4.53;2.75;;;;;;;;;;10289562;28;20528;-63
2023/10/16 01:52:26;;;;;;;5.18;3.20;;;;;;;;;;10298506;28;20073;-63
2023/10/16 01:57:25;;;;;;;3.40;3.00;;;;;;;;;;10291078;28;20068;-63
2023/10/16 02:02:25;;;;;;;9.40;2.45;;;;;;;;;;10288714;28;20092;-63
2023/10/16 02:07:33;;;;;;;3.60;3.30;;;;;;;;;;10287493;28;20509;-62
2023/10/16 02:12:33;;;;;;;3.30;3.00;;;;;;;;;;10287821;28;20069;-62
2023/10/16 02:17:33;;;;;;;3.53;3.08;;;;;;;;;;10288349;28;20509;-62
2023/10/16 02:22:32;;;;;;;5.22;3.33;;;;;;;;;;10290595;28;20498;-62
2023/10/16 02:27:30;;;;;;;5.50;4.32;;;;;;;;;;10297871;28;20076;-62
2023/10/16 02:32:29;;;;;;;4.10;3.50;;;;;;;;;;10290548;28;20077;-62
2023/10/16 02:37:29;;;;;;;5.20;3.45;;;;;;;;;;10290103;28;20072;-63
2023/10/16 02:42:28;;;;;;;5.25;3.95;;;;;;;;;;10290907;28;20079;-63
2023/10/16 02:47:26;;;;;;;5.45;3.75;;;;;;;;;;10296772;28;20084;-63
2023/10/16 02:52:25;;;;;;;5.25;4.45;;;;;;;;;;10289019;28;20083;-62
2023/10/16 02:57:25;;;;;;;5.35;4.18;;;;;;;;;;10290678;28;20084;-62
2023/10/16 03:02:25;;;;;;;5.35;4.00;;;;;;;;;;10298696;28;20071;-63
2023/10/16 03:07:25;;;;;;;7.05;5.07;;;;;;;;;;10293125;28;20150;-63
2023/10/16 03:12:26;;;;;;;5.45;4.38;;;;;;;;;;10297485;28;20064;-64
2023/10/16 03:17:34;;;;;;;4.90;4.35;;;;;;;;;;10298348;28;20065;-62
2023/10/16 03:22:33;;;;;;;5.25;4.47;;;;;;;;;;10291532;28;20037;-62
2023/10/16 03:27:33;;;;;;;11.57;4.57;;;;;;;;;;10297838;28;20072;-62
2023/10/16 03:32:33;;;;;;;4.95;4.15;;;;;;;;;;10294044;28;20084;-62
2023/10/16 03:37:35;;;;;;;7.57;4.03;;;;;;;;;;10294970;28;20072;-63
2023/10/16 03:42:35;;;;;;;7.53;3.95;;;;;;;;;;10296998;28;20072;-63
2023/10/16 03:47:33;;;;;;;8.45;4.50;;;;;;;;;;10295682;28;20096;-63
2023/10/16 03:52:33;;;;;;;5.65;3.83;;;;;;;;;;10295343;28;20076;-64
2023/10/16 03:57:31;;;;;;;9.73;4.18;;;;;;;;;;10290186;28;20068;-63
2023/10/16 04:02:31;;;;;;;5.10;3.53;;;;;;;;;;10297780;28;20085;-63
2023/10/16 04:07:31;;;;;;;10.23;3.78;;;;;;;;;;10289830;28;20081;-63
2023/10/16 04:12:33;;;;;;;6.57;3.47;;;;;;;;;;10292012;28;20080;-61
2023/10/16 04:17:35;;;;;;;5.18;3.95;;;;;;;;;;10280237;28;20076;-62
2023/10/16 04:22:44;;;;;;;3.50;3.20;;;;;;;;;;10291783;28;20083;-63
2023/10/16 04:27:43;;;;;;;5.68;3.15;;;;;;;;;;10292100;28;20073;-64
2023/10/16 04:32:56;;;;;;;5.80;3.00;;;;;;;;;;10291511;28;20076;-62
2023/10/16 04:37:55;;;;;;;6.25;3.00;;;;;;;;;;10286160;28;20064;-63
2023/10/16 04:48:39;;;;;;;4.88;2.85;;;;;;;;;;10271848;28;20079;-64
2023/10/16 04:53:58;;;;;;;3.53;2.83;;;;;;;;;;10285412;28;20080;-64
2023/10/16 04:59:00;;;;;;;6.95;2.60;;;;;;;;;;10282022;28;20103;-64
2023/10/16 05:04:34;;;;;;;7.15;2.97;;;;;;;;;;10276487;28;20068;-63
2023/10/16 05:20:52;;;;;;;8.88;3.28;;;;;;;;;;10279527;28;20068;-64
2023/10/16 06:18:17;;;;;;;8.10;3.22;;;;;;;;;;10281489;28;20072;-65
2023/10/16 06:23:19;;;;;;;6.47;2.78;;;;;;;;;;10278800;28;20060;-64
2023/10/16 06:28:17;;;;;;;4.53;3.08;;;;;;;;;;10286639;28;20076;-64
2023/10/16 06:33:15;;;;;;;4.47;2.65;;;;;;;;;;10280466;28;20465;-64
2023/10/16 06:38:15;;;;;;;4.22;2.78;;;;;;;;;;10283573;28;20064;-64
2023/10/16 06:43:16;;;;;;;3.20;2.90;;;;;;;;;;10287505;28;20065;-64
2023/10/16 06:48:15;;;;;;;4.85;2.75;;;;;;;;;;10281847;28;20079;-64
2023/10/16 06:53:14;;;;;;;4.32;3.17;;;;;;;;;;10283760;28;20083;-65
2023/10/16 06:58:12;;;;;;;5.13;2.28;;;;;;;;;;10279670;28;20073;-65
2023/10/16 07:03:12;;;;;;;9.43;3.42;;;;;;;;;;10273207;28;20076;-65
2023/10/16 07:08:11;;;;;;;7.82;2.67;;;;;;;;;;10269233;28;20073;-64
2023/10/16 07:13:10;;;;;;;5.57;2.85;;;;;;;;;;10283133;28;20086;-63
2023/10/16 07:18:14;;;;;;;4.80;3.42;;;;;;;;;;10285736;28;20132;-63
2023/10/16 07:23:13;;;;;;;4.10;2.80;;;;;;;;;;10286737;28;20076;-64
2023/10/16 07:28:12;;;;;;;6.50;2.88;;;;;;;;;;10284149;28;20068;-64
2023/10/16 07:33:14;;;;;;;5.20;3.13;;;;;;;;;;10282501;28;20080;-64
2023/10/16 07:38:19;;;;;;;8.98;3.83;;;;;;;;;;10281486;28;20462;-65
2023/10/16 07:43:17;;;;;;;11.85;5.97;;;;;;;;;;10287010;28;20072;-65
2023/10/16 07:48:20;;;;;;;8.32;3.35;;;;;;;;;;10291217;28;20079;-64
2023/10/16 07:53:20;;;;;;;9.25;3.20;;;;;;;;;;10291211;28;20080;-65
2023/10/16 07:58:23;;;;;;;5.97;3.22;;;;;;;;;;10291338;28;20075;-65
2023/10/16 08:03:21;;;;;;;3.90;3.20;;;;;;;;;;10292157;28;20068;-65
2023/10/16 08:08:35;;;;;;;2.20;2.00;;;;;;;;;;10293745;28;20076;-64
2023/10/16 08:13:34;;;;;;;2.83;1.90;;;;;;;;;;10289525;28;20080;-65
2023/10/16 08:18:32;;;;;;;4.70;2.00;;;;;;;;;;10295075;28;20080;-65
2023/10/16 08:23:35;;;;;;;1.80;1.70;;;;;;;;;;10283697;28;20073;-63
2023/10/16 08:28:36;;;;;;;1.13;1.10;;;;;;;;;;10286728;28;20069;-62
2023/10/16 08:33:35;;;;;;;2.25;2.10;;;;;;;;;;10291639;28;20158;-64
2023/10/16 08:38:36;;;;;;;1.65;1.25;;;;;;;;;;10285842;28;20075;-65
2023/10/16 08:43:52;;;;;;;1.35;1.25;;;;;;;;;;10285767;28;20076;-65
2023/10/16 08:48:54;;;;;;;0.90;0.90;;;;;;;;;;10280461;28;20509;-65
2023/10/16 08:53:59;;;;;;;3.78;1.33;;;;;;;;;;10283716;28;20072;-65
2023/10/16 08:58:57;;;;;;;1.13;1.08;;;;;;;;;;10285905;28;20080;-64
2023/10/16 09:04:01;;;;;;;1.83;1.23;;;;;;;;;;10283679;28;20067;-65
2023/10/16 09:09:01;;;;;;;2.40;1.20;;;;;;;;;;10290974;28;20080;-66
2023/10/16 09:13:59;;;;;;;3.65;1.63;;;;;;;;;;10275086;28;20084;-63
2023/10/16 09:18:58;;;;;;;1.27;1.17;;;;;;;;;;10278472;28;20084;-66
2023/10/16 09:23:58;;;;;;;3.38;1.42;;;;;;;;;;10289773;28;20069;-66
2023/10/16 09:29:04;;;;;;;1.45;1.35;;;;;;;;;;10279341;28;20079;-66
2023/10/16 09:34:03;;;;;;;2.03;1.20;;;;;;;;;;10281975;28;20068;-67
2023/10/16 09:39:16;;;;;;;2.05;1.00;;;;;;;;;;10271891;28;20076;-66
2023/10/16 09:44:36;;;;;;;3.00;2.70;;;;;;;;;;10283212;28;20102;-66
2023/10/16 09:49:35;;;;;;;3.50;2.13;;;;;;;;;;10279728;28;20080;-67
2023/10/16 09:54:35;;;;;;;3.92;1.50;;;;;;;;;;10279927;28;20517;-66
2023/10/16 09:59:38;;;;;;;46.20;41.75;;;;;;;;;;10283590;28;20083;-66
2023/10/16 10:04:39;;;;;;;1.80;1.55;;;;;;;;;;10286526;28;20071;-66
2023/10/16 10:09:42;;;;;;;2.88;1.55;;;;;;;;;;10281789;28;20507;-65
2023/10/16 10:14:49;;;;;;;4.15;1.60;;;;;;;;;;10273185;28;20072;-65
2023/10/16 10:19:54;;;;;;;3.30;1.25;;;;;;;;;;10280410;28;20075;-65
2023/10/16 10:25:11;;;;;;;3.15;1.83;;;;;;;;;;10283173;28;20076;-65
2023/10/16 10:30:25;;;;;;;8.93;2.25;;;;;;;;;;10275813;28;20072;-65
2023/10/16 10:35:26;;;;;;;2.95;2.00;;;;;;;;;;10276844;28;20064;-64
2023/10/16 10:40:26;;;;;;;2.85;2.35;;;;;;;;;;10288999;28;20518;-65
2023/10/16 10:50:45;;;;;;;3.42;2.30;;;;;;;;;;10279377;28;20087;-64
2023/10/16 10:55:53;;;;;;;3.83;2.88;;;;;;;;;;10283660;28;20488;-65
2023/10/16 11:01:01;;;;;;;2.97;2.22;;;;;;;;;;10287022;28;20064;-65
2023/10/16 11:05:59;;;;;;;4.30;2.60;;;;;;;;;;10281898;28;20072;-65
2023/10/16 11:11:03;;;;;;;3.83;2.40;;;;;;;;;;10281809;28;20076;-65
2023/10/16 11:16:07;;;;;;;3.58;2.83;;;;;;;;;;10285479;28;20071;-65
2023/10/16 11:21:06;;;;;;;7.05;2.35;;;;;;;;;;10288150;28;20526;-65
2023/10/16 11:26:06;;;;;;;2.70;1.98;;;;;;;;;;10283781;28;20503;-65
2023/10/16 11:31:09;;;;;;;3.00;2.70;;;;;;;;;;10302301;28;20076;-65
2023/10/16 11:36:13;;;;;;;8.88;2.42;;;;;;;;;;10290441;28;20280;-65
2023/10/16 11:41:19;;;;;;;1.95;1.75;;;;;;;;;;10291350;28;20069;-65
2023/10/16 11:46:33;;;;;;;4.93;2.00;;;;;;;;;;10288857;28;20137;-65
2023/10/16 11:51:35;;;;;;;5.70;2.57;;;;;;;;;;10291888;28;20072;-65
2023/10/16 11:56:34;;;;;;;3.45;2.63;;;;;;;;;;10287722;28;20067;-65
2023/10/16 12:01:34;;;;;;;5.07;1.90;;;;;;;;;;10292393;28;20076;-65
2023/10/16 12:06:53;;;;;;;2.67;1.90;;;;;;;;;;10292613;28;20068;-64
2023/10/16 12:11:52;;;;;;;5.03;1.85;;;;;;;;;;10291106;28;20075;-65
2023/10/16 12:16:52;;;;;;;2.40;2.20;;;;;;;;;;10287517;28;20076;-66
2023/10/16 12:21:52;;;;;;;3.05;2.42;;;;;;;;;;10287799;28;20073;-65
2023/10/16 12:26:52;;;;;;;4.60;1.90;;;;;;;;;;10273952;28;20077;-65
2023/10/16 12:31:51;;;;;;;3.42;2.45;;;;;;;;;;10286780;28;20073;-65
2023/10/16 12:36:50;;;;;;;4.43;2.78;;;;;;;;;;10287439;28;20065;-65
2023/10/16 12:41:48;;;;;;;3.75;2.10;;;;;;;;;;10273209;28;20078;-65
2023/10/16 12:46:48;;;;;;;3.08;1.90;;;;;;;;;;10280510;28;20083;-64
2023/10/16 12:51:49;;;;;;;4.63;1.90;;;;;;;;;;10282678;28;20080;-65
2023/10/16 12:56:52;;;;;;;2.42;1.83;;;;;;;;;;10283475;28;20065;-65
2023/10/16 13:01:52;;;;;;;2.50;1.70;;;;;;;;;;10286422;28;20084;-65
2023/10/16 13:06:51;;;;;;;3.08;1.40;;;;;;;;;;10284533;28;20079;-65
2023/10/16 13:11:50;;;;;;;1.75;1.65;;;;;;;;;;10287821;28;20446;-65
2023/10/16 13:16:53;;;;;;;5.05;2.03;;;;;;;;;;10293558;28;20084;-66
2023/10/16 13:21:53;;;;;;;2.33;1.45;;;;;;;;;;10289300;28;20072;-66
2023/10/16 13:26:52;;;;;;;2.85;2.10;;;;;;;;;;10289424;28;20056;-65
2023/10/16 13:31:53;;;;;;;1.58;1.48;;;;;;;;;;10284300;28;20076;-65
2023/10/16 13:37:00;;;;;;;7.88;3.65;;;;;;;;;;10290999;28;20071;-66
2023/10/16 13:41:59;;;;;;;2.17;1.67;;;;;;;;;;10289174;28;20080;-66
2023/10/16 13:46:59;;;;;;;1.90;1.65;;;;;;;;;;10284796;28;20060;-65
2023/10/16 13:51:59;;;;;;;1.92;1.75;;;;;;;;;;10282828;28;20804;-66
2023/10/16 13:57:01;;;;;;;1.80;1.55;;;;;;;;;;10276923;28;20069;-66
2023/10/16 14:02:01;;;;;;;3.67;1.70;;;;;;;;;;10283752;28;20067;-66
2023/10/16 14:07:01;;;;;;;4.15;1.75;;;;;;;;;;10282447;28;20076;-64
2023/10/16 14:12:00;;;;;;;14.38;1.60;;;;;;;;;;10287683;28;20069;-66
2023/10/16 14:17:03;;;;;;;5.25;2.05;;;;;;;;;;10282023;28;20076;-65
2023/10/16 14:22:06;;;;;;;3.47;1.15;;;;;;;;;;10288349;28;20503;-65
2023/10/16 14:27:06;;;;;;;3.33;1.83;;;;;;;;;;10284012;28;20458;-67
2023/10/16 14:32:05;;;;;;;4.40;1.50;;;;;;;;;;10281634;28;20497;-65
2023/10/16 14:37:06;;;;;;;4.20;1.95;;;;;;;;;;10285692;28;20069;-65
2023/10/16 14:42:05;;;;;;;3.72;1.50;;;;;;;;;;10285138;28;20543;-66
2023/10/16 14:47:09;;;;;;;2.95;1.73;;;;;;;;;;10289540;28;20103;-66
2023/10/16 14:52:09;;;;;;;6.53;2.13;;;;;;;;;;10285162;28;20072;-66
2023/10/16 14:57:08;;;;;;;5.28;2.38;;;;;;;;;;10292760;28;20076;-67
2023/10/16 15:02:10;;;;;;;3.90;2.42;;;;;;;;;;10292802;28;20636;-67
2023/10/16 15:07:11;;;;;;;3.53;1.67;;;;;;;;;;10295842;28;20071;-65
2023/10/16 15:12:09;;;;;;;4.78;1.92;;;;;;;;;;10290696;28;20084;-66
2023/10/16 15:17:10;;;;;;;9.82;2.38;;;;;;;;;;10295494;28;20576;-67
2023/10/16 15:22:10;;;;;;;3.00;2.10;;;;;;;;;;10292223;28;20079;-66
2023/10/16 15:27:10;;;;;;;3.75;1.63;;;;;;;;;;10292151;28;20076;-66
2023/10/16 15:32:09;;;;;;;3.28;1.92;;;;;;;;;;10288617;28;20087;-67
2023/10/16 15:37:08;;;;;;;3.75;2.78;;;;;;;;;;10290865;28;20863;-66
2023/10/16 15:42:09;;;;;;;5.90;3.10;;;;;;;;;;10290220;28;20077;-65
2023/10/16 15:47:07;;;;;;;2.85;1.92;;;;;;;;;;10290752;28;20113;-67
2023/10/16 15:52:06;;;;;;;9.18;2.53;;;;;;;;;;10291862;28;20083;-66
2023/10/16 15:57:05;;;;;;;9.05;3.10;;;;;;;;;;10284856;28;20072;-67
2023/10/16 16:02:16;;;;;;;5.30;1.95;;;;;;;;;;10281477;28;20068;-67
2023/10/16 16:07:14;;;;;;;12.40;3.20;;;;;;;;;;10288207;28;20072;-65
2023/10/16 16:12:14;;;;;;;4.60;1.60;;;;;;;;;;10291958;28;20075;-66
2023/10/16 16:17:12;;;;;;;5.15;2.25;;;;;;;;;;10293781;28;20080;-66
2023/10/16 16:22:11;;;;;;;7.32;2.10;;;;;;;;;;10290993;28;20068;-65
2023/10/16 16:27:10;;;;;;;9.23;2.05;;;;;;;;;;10288877;28;20068;-67
2023/10/16 16:32:09;;;;;;;9.20;2.17;;;;;;;;;;10290515;28;20084;-66
2023/10/16 16:37:07;;;;;;;2.30;1.83;;;;;;;;;;10290359;28;20072;-65
2023/10/16 16:42:11;;;;;;;5.07;2.70;;;;;;;;;;10288140;28;20080;-66
2023/10/16 16:47:09;;;;;;;4.53;2.50;;;;;;;;;;10287209;28;20080;-65
2023/10/16 16:52:07;;;;;;;5.07;4.50;;;;;;;;;;10288832;28;20522;-68
2023/10/16 16:57:07;;;;;;;4.78;3.75;;;;;;;;;;10287388;28;20079;-68
2023/10/16 17:02:06;;;;;;;4.32;2.15;;;;;;;;;;10288360;28;20087;-66
2023/10/16 17:07:05;;;;;;;3.13;2.10;;;;;;;;;;10290149;28;20063;-66
2023/10/16 17:12:03;;;;;;;5.28;2.45;;;;;;;;;;10286515;28;20079;-66
2023/10/16 17:17:04;;;;;;;2.10;1.65;;;;;;;;;;10286302;28;20487;-65
2023/10/16 17:22:02;;;;;;;3.25;1.60;;;;;;;;;;10276395;28;20064;-65
2023/10/16 17:27:01;;;;;;;3.22;1.90;;;;;;;;;;10288188;28;20069;-65
2023/10/16 17:31:59;;;;;;;2.92;2.00;;;;;;;;;;10286701;28;20079;-66
2023/10/16 17:37:03;;;;;;;2.22;1.80;;;;;;;;;;10292778;28;20087;-66
2023/10/16 17:42:02;;;;;;;4.07;2.55;;;;;;;;;;10285371;28;20076;-66
2023/10/16 17:47:01;;;;;;;1.58;1.48;;;;;;;;;;10291975;28;20084;-65
2023/10/16 17:52:01;;;;;;;1.92;1.73;;;;;;;;;;10287819;28;20184;-64
2023/10/16 17:57:00;;;;;;;3.17;1.75;;;;;;;;;;10288149;28;20071;-65
2023/10/16 18:01:59;;;;;;;2.00;1.38;;;;;;;;;;10272602;28;20081;-65
2023/10/16 18:06:57;;;;;;;3.97;1.60;;;;;;;;;;10272247;28;20083;-65
2023/10/16 18:12:03;;;;;;;2.30;1.88;;;;;;;;;;10286881;28;20080;-66
2023/10/16 18:17:02;;;;;;;2.60;1.55;;;;;;;;;;10279953;28;20192;-66
2023/10/16 18:22:03;;;;;;;15.77;1.92;;;;;;;;;;10273229;28;20087;-64
2023/10/16 18:27:03;;;;;;;2.67;1.40;;;;;;;;;;10294369;28;20083;-69
2023/10/16 18:32:01;;;;;;;4.90;2.00;;;;;;;;;;10286671;28;20471;-68
2023/10/16 18:37:00;;;;;;;2.30;2.10;;;;;;;;;;10287209;28;20104;-66
2023/10/16 18:41:58;;;;;;;2.30;1.95;;;;;;;;;;10283318;28;20072;-64
2023/10/16 18:46:58;;;;;;;2.45;2.00;;;;;;;;;;10282085;28;20069;-66
2023/10/16 18:51:56;;;;;;;2.38;1.55;;;;;;;;;;10268082;28;20115;-65
2023/10/16 18:56:54;;;;;;;1.45;1.35;;;;;;;;;;10269822;28;20079;-64
2023/10/16 19:01:53;;;;;;;3.40;1.40;;;;;;;;;;10291876;28;20075;-65
2023/10/16 19:06:53;;;;;;;2.40;1.58;;;;;;;;;;10285956;28;20060;-64
2023/10/16 19:11:51;;;;;;;4.05;1.50;;;;;;;;;;10284139;28;20076;-67
2023/10/16 19:16:50;;;;;;;6.68;1.70;;;;;;;;;;10285509;28;20072;-66
2023/10/16 19:21:48;;;;;;;1.33;1.17;;;;;;;;;;10277733;28;20079;-65
2023/10/16 19:26:48;;;;;;;1.40;1.30;;;;;;;;;;10288674;28;20520;-63
2023/10/16 19:31:46;;;;;;;3.10;1.73;;;;;;;;;;10279593;28;20442;-66
2023/10/16 19:36:45;;;;;;;4.18;1.50;;;;;;;;;;10278093;28;20077;-65
2023/10/16 19:41:48;;;;;;;2.70;1.63;;;;;;;;;;10285162;28;20079;-66
2023/10/16 19:46:48;;;;;;;4.07;1.95;;;;;;;;;;10292679;28;20077;-66
2023/10/16 19:51:47;;;;;;;3.20;2.42;;;;;;;;;;10279523;28;20083;-66
2023/10/16 19:56:47;;;;;;;1.98;1.50;;;;;;;;;;10283299;28;20068;-66
2023/10/16 20:01:46;;;;;;;1.83;1.40;;;;;;;;;;10276371;28;20064;-65
2023/10/16 20:06:45;;;;;;;2.30;1.80;;;;;;;;;;10292657;28;20075;-66
2023/10/16 20:11:44;;;;;;;2.35;1.90;;;;;;;;;;10288654;28;20084;-66
2023/10/16 20:16:42;;;;;;;4.70;2.42;;;;;;;;;;10292684;28;20072;-65
2023/10/16 20:21:42;;;;;;;4.63;2.33;;;;;;;;;;10293311;28;20076;-65
2023/10/16 20:26:41;;;;;;;1.95;1.52;;;;;;;;;;10290165;28;20068;-65
2023/10/16 20:31:39;;;;;;;2.83;1.70;;;;;;;;;;10295695;28;20506;-65
2023/10/16 20:36:57;;;;;;;4.72;1.65;;;;;;;;;;10292060;28;20098;-67
2023/10/16 20:41:57;;;;;;;2.25;1.60;;;;;;;;;;10290350;28;20081;-65
2023/10/16 20:46:55;;;;;;;3.08;1.90;;;;;;;;;;10292217;28;20080;-66
2023/10/16 20:51:55;;;;;;;5.20;1.88;;;;;;;;;;10292194;28;20061;-64
2023/10/16 20:56:53;;;;;;;4.30;1.55;;;;;;;;;;10293689;28;20076;-64
2023/10/16 21:01:53;;;;;;;2.45;1.40;;;;;;;;;;10294047;28;20469;-65
2023/10/16 21:06:53;;;;;;;1.52;1.40;;;;;;;;;;10291465;28;20071;-65
2023/10/16 21:11:51;;;;;;;3.42;1.48;;;;;;;;;;10293639;28;20063;-66
2023/10/16 21:16:51;;;;;;;5.97;2.05;;;;;;;;;;10292975;28;20099;-65
2023/10/16 21:21:52;;;;;;;4.53;1.95;;;;;;;;;;10292402;28;20087;-66
2023/10/16 21:26:51;;;;;;;1.80;1.40;;;;;;;;;;10291290;28;20094;-65
2023/10/16 21:31:49;;;;;;;1.73;1.30;;;;;;;;;;10289854;28;20414;-65
2023/10/16 21:36:48;;;;;;;2.13;1.45;;;;;;;;;;10293928;28;20072;-66
2023/10/16 21:41:48;;;;;;;2.28;1.90;;;;;;;;;;10290760;28;20478;-65
2023/10/16 21:46:46;;;;;;;3.53;1.48;;;;;;;;;;10290977;28;20076;-66
2023/10/16 21:51:44;;;;;;;1.52;1.42;;;;;;;;;;10291845;28;20481;-65
2023/10/16 21:56:44;;;;;;;2.88;1.95;;;;;;;;;;10287220;28;20639;-65
2023/10/16 22:01:44;;;;;;;3.20;1.80;;;;;;;;;;10282625;28;20069;-66
2023/10/16 22:06:43;;;;;;;2.42;1.88;;;;;;;;;;10292359;28;20534;-66
2023/10/16 22:11:42;;;;;;;3.92;1.58;;;;;;;;;;10291549;28;20078;-66
2023/10/16 22:16:40;;;;;;;1.52;1.42;;;;;;;;;;10289251;28;20084;-65
2023/10/16 22:21:40;;;;;;;2.33;1.70;;;;;;;;;;10288260;28;20076;-65
2023/10/16 22:26:38;;;;;;;2.45;1.75;;;;;;;;;;10292338;28;20084;-65
2023/10/16 22:31:36;;;;;;;6.93;2.30;;;;;;;;;;10291481;28;20069;-65
2023/10/16 22:36:34;;;;;;;8.38;2.78;;;;;;;;;;10290418;28;20072;-66
2023/10/16 22:41:34;;;;;;;7.13;1.80;;;;;;;;;;10286976;28;20044;-66
2023/10/16 22:46:32;;;;;;;2.47;1.52;;;;;;;;;;10290443;28;20075;-66
2023/10/16 22:51:32;;;;;;;5.30;2.22;;;;;;;;;;10288956;28;20095;-65
2023/10/16 22:56:30;;;;;;;3.05;2.38;;;;;;;;;;10288920;28;20068;-65
2023/10/16 23:01:31;;;;;;;1.88;1.40;;;;;;;;;;10287183;28;20079;-65
2023/10/16 23:06:29;;;;;;;5.05;1.73;;;;;;;;;;10291645;28;20060;-66
2023/10/16 23:11:27;;;;;;;4.07;2.00;;;;;;;;;;10290120;28;20102;-66
2023/10/16 23:16:27;;;;;;;5.22;2.13;;;;;;;;;;10294158;28;20470;-66
2023/10/16 23:21:28;;;;;;;3.10;2.08;;;;;;;;;;10296191;28;20065;-66
2023/10/16 23:26:28;;;;;;;2.55;2.03;;;;;;;;;;10295046;28;20067;-66
2023/10/16 23:31:26;;;;;;;1.73;1.63;;;;;;;;;;10295819;28;20395;-65
2023/10/16 23:36:25;;;;;;;2.25;1.95;;;;;;;;;;10295069;28;20087;-65
2023/10/16 23:41:28;;;;;;;2.30;1.88;;;;;;;;;;10297763;28;20069;-66
2023/10/16 23:46:28;;;;;;;1.98;1.70;;;;;;;;;;10296389;28;20100;-65
2023/10/16 23:51:29;;;;;;;2.85;2.13;;;;;;;;;;10297164;28;20095;-64
2023/10/16 23:56:37;;;;;;;2.92;1.70;;;;;;;;;;10297486;28;20076;-65
